Time;durP1;ratioP1;P1;durP2;ratioP2;P2;SDS_P1;SDS_P2;PMS_P1;PMS_P2;Temp;Humidity;BMP_temperature;BMP_pressure;BME280_temperature;BME280_humidity;BME280_pressure;Samples;Min_cycle;Max_cycle;Signal;HPM_P1;HPM_P2
2022/11/08 00:02:41;;;;;;;5.30;2.83;;;14.80;99.90;;;;;;5063948;28;20044;-78
2022/11/08 00:16:12;;;;;;;6.17;3.33;;;14.70;99.90;;;;;;5041135;28;20048;-79
2022/11/08 00:18:39;;;;;;;5.60;3.50;;;14.60;99.90;;;;;;5063148;28;20526;-78
2022/11/08 00:21:07;;;;;;;5.75;2.80;;;14.60;99.90;;;;;;5024161;28;21043;-78
2022/11/08 00:23:34;;;;;;;5.45;2.78;;;14.60;99.90;;;;;;5040028;28;20080;-80
2022/11/08 00:26:02;;;;;;;4.15;3.13;;;14.60;99.90;;;;;;5061525;28;20095;-79
2022/11/08 00:28:29;;;;;;;8.75;3.63;;;14.60;99.90;;;;;;5042057;28;20040;-78
2022/11/08 00:30:57;;;;;;;7.47;3.55;;;14.50;99.90;;;;;;5061552;28;20028;-79
2022/11/08 00:33:24;;;;;;;5.88;4.00;;;14.60;99.90;;;;;;5061039;28;20087;-78
2022/11/08 00:35:52;;;;;;;5.70;2.88;;;14.50;99.90;;;;;;5033257;28;20111;-80
2022/11/08 00:38:19;;;;;;;5.57;3.03;;;14.50;99.90;;;;;;5056403;28;20037;-79
2022/11/08 00:40:47;;;;;;;5.53;3.83;;;14.50;99.90;;;;;;5036463;28;20063;-80
2022/11/08 00:43:15;;;;;;;6.15;3.35;;;14.50;99.90;;;;;;5050896;28;20040;-80
2022/11/08 00:45:42;;;;;;;6.05;3.38;;;14.50;99.90;;;;;;5036261;28;20083;-80
2022/11/08 00:48:10;;;;;;;5.53;3.10;;;14.40;99.90;;;;;;5050333;28;20075;-81
2022/11/08 00:50:38;;;;;;;5.60;3.72;;;14.40;99.90;;;;;;5050548;28;20052;-81
2022/11/08 00:53:06;;;;;;;6.28;4.57;;;14.40;99.90;;;;;;5033906;28;20045;-81
2022/11/08 00:55:34;;;;;;;4.53;3.05;;;14.40;99.90;;;;;;5052840;28;20047;-81
2022/11/08 00:58:01;;;;;;;4.97;3.10;;;14.40;99.90;;;;;;5048556;28;20119;-81
2022/11/08 01:00:30;;;;;;;6.88;3.15;;;14.40;99.90;;;;;;5066092;28;20569;-80
2022/11/08 01:05:44;;;;;;;6.22;2.97;;;14.40;99.90;;;;;;5050641;28;20051;-81
2022/11/08 01:08:13;;;;;;;7.13;3.58;;;14.40;99.90;;;;;;5052400;28;20057;-83
2022/11/08 01:10:46;;;;;;;10.77;3.25;;;14.40;99.90;;;;;;5036706;28;20067;-82
2022/11/08 01:13:14;;;;;;;6.53;3.25;;;14.30;99.90;;;;;;5064505;28;20045;-81
2022/11/08 01:15:43;;;;;;;4.90;3.00;;;14.40;99.90;;;;;;5052585;28;20063;-82
2022/11/08 01:18:12;;;;;;;5.55;3.33;;;14.30;99.90;;;;;;5064266;28;20037;-81
2022/11/08 01:20:41;;;;;;;6.45;3.15;;;14.30;99.90;;;;;;5065354;28;20033;-84
2022/11/08 01:23:09;;;;;;;5.55;3.50;;;14.30;99.90;;;;;;5049503;28;20122;-84
2022/11/08 01:25:40;;;;;;;6.05;3.42;;;14.20;99.90;;;;;;5051965;28;20123;-85
2022/11/08 01:28:08;;;;;;;4.63;3.33;;;14.20;99.90;;;;;;5032888;28;20057;-84
2022/11/08 01:30:37;;;;;;;5.68;3.53;;;14.20;99.90;;;;;;5029736;28;20036;-84
2022/11/08 01:33:18;;;;;;;5.88;3.33;;;14.20;99.90;;;;;;5052261;28;20094;-83
2022/11/08 01:35:46;;;;;;;11.30;3.75;;;14.20;99.90;;;;;;5049522;28;20049;-83
2022/11/08 01:38:13;;;;;;;6.10;4.05;;;14.20;99.90;;;;;;5066513;28;20127;-83
2022/11/08 01:40:46;;;;;;;4.63;3.40;;;14.20;99.90;;;;;;5064766;28;20056;-85
2022/11/08 01:43:28;;;;;;;6.55;3.67;;;14.20;99.90;;;;;;5032639;28;20034;-84
2022/11/08 01:46:17;;;;;;;5.95;3.85;;;14.20;99.90;;;;;;5032407;28;20032;-83
2022/11/08 01:49:17;;;;;;;5.32;3.40;;;14.20;99.90;;;;;;5051828;28;20052;-81
2022/11/08 01:51:49;;;;;;;5.63;3.60;;;14.20;99.90;;;;;;5064568;28;20170;-83
2022/11/08 01:54:29;;;;;;;6.70;4.28;;;14.20;99.90;;;;;;5065938;28;20552;-86
2022/11/08 01:56:57;;;;;;;5.43;4.22;;;14.30;99.90;;;;;;5044732;28;20670;-86
2022/11/08 01:59:25;;;;;;;5.85;3.75;;;14.20;99.90;;;;;;5046257;28;20052;-87
2022/11/08 02:01:54;;;;;;;5.53;3.28;;;14.20;99.90;;;;;;5042849;28;20041;-87
2022/11/08 02:04:22;;;;;;;6.88;3.65;;;14.20;99.90;;;;;;5066894;28;20155;-84
2022/11/08 02:06:51;;;;;;;8.07;3.42;;;14.20;99.90;;;;;;5051767;28;20561;-85
2022/11/08 02:09:18;;;;;;;5.18;2.97;;;14.20;99.90;;;;;;5052351;28;20072;-82
2022/11/08 02:11:47;;;;;;;5.43;2.50;;;14.20;99.90;;;;;;5051409;28;20403;-84
2022/11/08 02:14:16;;;;;;;8.18;3.03;;;14.10;99.90;;;;;;5050515;28;20052;-84
2022/11/08 02:16:44;;;;;;;6.78;3.38;;;14.10;99.90;;;;;;5068999;28;20219;-83
2022/11/08 02:19:19;;;;;;;3.97;2.83;;;14.10;99.90;;;;;;5051759;28;20470;-84
2022/11/08 02:22:01;;;;;;;4.13;2.80;;;14.10;99.90;;;;;;5051428;28;20044;-85
2022/11/08 02:24:29;;;;;;;4.68;2.92;;;14.10;99.90;;;;;;5052076;28;20127;-81
2022/11/08 02:26:57;;;;;;;4.70;2.53;;;14.10;99.90;;;;;;5069435;28;20048;-86
2022/11/08 02:29:33;;;;;;;3.95;2.80;;;14.00;99.90;;;;;;5052337;28;20052;-85
2022/11/08 02:32:02;;;;;;;;;;;14.10;99.90;;;;;;5053392;28;20787;-85
2022/11/08 02:34:57;;;;;;;5.90;3.55;;;14.10;99.90;;;;;;5036625;28;19978;-85
2022/11/08 02:37:25;;;;;;;8.38;3.72;;;14.10;99.90;;;;;;5053592;28;20503;-85
2022/11/08 02:39:55;;;;;;;4.68;3.20;;;14.10;99.90;;;;;;5026562;28;20069;-85
2022/11/08 02:42:23;;;;;;;5.72;3.63;;;14.10;99.90;;;;;;5032573;28;20056;-87
2022/11/08 02:44:51;;;;;;;5.35;3.10;;;14.00;99.90;;;;;;5032740;28;20186;-86
2022/11/08 02:47:18;;;;;;;6.68;3.92;;;14.10;99.90;;;;;;5033221;28;20526;-86
2022/11/08 02:49:46;;;;;;;7.38;3.67;;;14.10;99.90;;;;;;5050835;28;20132;-88
2022/11/08 02:52:14;;;;;;;5.88;3.33;;;14.00;99.90;;;;;;5052725;28;20383;-86
2022/11/08 02:54:41;;;;;;;6.75;4.07;;;14.00;99.90;;;;;;5053115;28;20056;-86
2022/11/08 02:57:09;;;;;;;8.18;4.32;;;14.00;99.90;;;;;;5066453;28;20107;-86
2022/11/08 02:59:36;;;;;;;6.85;4.10;;;14.00;99.90;;;;;;5052990;28;20131;-86
2022/11/08 03:02:04;;;;;;;6.45;3.55;;;14.00;99.90;;;;;;5032001;28;20083;-85
2022/11/08 03:04:32;;;;;;;8.90;4.95;;;14.00;99.90;;;;;;5048611;28;20045;-84
2022/11/08 03:07:00;;;;;;;7.70;4.57;;;14.00;99.90;;;;;;5016348;28;20115;-85
2022/11/08 03:09:28;;;;;;;5.93;4.07;;;14.00;99.90;;;;;;5032401;28;20049;-86
2022/11/08 03:11:56;;;;;;;6.63;4.43;;;13.90;99.90;;;;;;5047591;28;20167;-83
2022/11/08 03:14:23;;;;;;;9.15;4.75;;;14.00;99.90;;;;;;5047666;28;20045;-85
2022/11/08 03:16:54;;;;;;;5.70;4.38;;;13.90;99.90;;;;;;5048466;28;20064;-85
2022/11/08 03:19:23;;;;;;;7.57;4.47;;;13.80;99.90;;;;;;5048312;28;20507;-84
2022/11/08 03:21:51;;;;;;;7.88;4.60;;;13.90;99.90;;;;;;5015157;28;20890;-86
2022/11/08 03:24:18;;;;;;;9.07;4.28;;;13.90;99.90;;;;;;5048453;28;20061;-82
2022/11/08 03:26:46;;;;;;;13.52;4.30;;;13.90;99.90;;;;;;5032554;28;20059;-87
2022/11/08 03:29:13;;;;;;;9.98;4.93;;;13.90;99.90;;;;;;5050008;28;20130;-87
2022/11/08 03:31:41;;;;;;;6.25;3.92;;;13.90;99.90;;;;;;5048412;28;20056;-85
2022/11/08 03:34:09;;;;;;;8.52;4.82;;;13.90;99.90;;;;;;5049077;28;20111;-85
2022/11/08 03:36:37;;;;;;;8.23;4.03;;;13.90;99.90;;;;;;5048547;28;20053;-85
2022/11/08 03:39:04;;;;;;;6.97;3.60;;;13.90;99.90;;;;;;5048118;28;20076;-84
2022/11/08 03:41:32;;;;;;;7.15;3.75;;;13.90;99.90;;;;;;5047579;28;20057;-84
2022/11/08 03:43:59;;;;;;;5.05;3.45;;;14.00;99.90;;;;;;5048452;28;20049;-80
2022/11/08 03:46:28;;;;;;;10.20;4.13;;;13.90;99.90;;;;;;5015681;28;20049;-86
2022/11/08 03:48:56;;;;;;;9.10;4.28;;;14.00;99.90;;;;;;5049170;28;20087;-85
2022/11/08 03:51:23;;;;;;;6.00;3.40;;;14.00;99.90;;;;;;5014339;28;20094;-87
2022/11/08 03:53:51;;;;;;;6.97;3.60;;;14.10;99.90;;;;;;5015515;28;20053;-85
2022/11/08 03:56:19;;;;;;;5.25;2.92;;;14.10;99.90;;;;;;5063918;28;20061;-87
2022/11/08 03:58:46;;;;;;;7.63;4.00;;;14.20;99.90;;;;;;5064378;28;20543;-86
2022/11/08 04:01:14;;;;;;;7.13;3.10;;;14.20;99.90;;;;;;5055076;28;20095;-86
2022/11/08 04:03:42;;;;;;;6.10;3.53;;;14.20;99.90;;;;;;5067934;28;20045;-87
2022/11/08 04:06:09;;;;;;;5.55;3.78;;;14.20;99.90;;;;;;5050489;28;20067;-84
2022/11/08 04:08:37;;;;;;;7.82;4.05;;;14.10;99.90;;;;;;5035037;28;20410;-85
2022/11/08 04:16:36;;;;;;;6.25;4.50;;;14.10;99.90;;;;;;5050505;28;20423;-86
2022/11/08 04:21:52;;;;;;;6.22;4.00;;;14.10;99.90;;;;;;5066927;28;20135;-86
2022/11/08 04:24:20;;;;;;;7.78;3.78;;;14.10;99.90;;;;;;5051352;28;20057;-86
2022/11/08 04:26:47;;;;;;;8.02;3.75;;;14.10;99.90;;;;;;5067513;28;20549;-86
2022/11/08 04:29:15;;;;;;;7.55;4.47;;;14.10;99.90;;;;;;5068265;28;20060;-85
2022/11/08 04:31:42;;;;;;;9.25;3.72;;;14.10;99.90;;;;;;5067370;28;20067;-86
2022/11/08 04:34:10;;;;;;;7.75;4.43;;;14.00;99.90;;;;;;5065522;28;20057;-86
2022/11/08 04:36:37;;;;;;;8.85;5.18;;;14.00;99.90;;;;;;5065768;28;20044;-84
2022/11/08 04:39:05;;;;;;;6.18;4.35;;;14.00;99.90;;;;;;5050530;28;20049;-86
2022/11/08 04:41:32;;;;;;;7.15;4.28;;;14.00;99.90;;;;;;5068289;28;20093;-85
2022/11/08 04:43:59;;;;;;;4.97;3.38;;;13.90;99.90;;;;;;5067402;28;20057;-83
2022/11/08 04:46:28;;;;;;;6.15;3.50;;;13.80;99.90;;;;;;5050590;28;20039;-86
2022/11/08 04:48:58;;;;;;;7.25;3.60;;;13.90;99.90;;;;;;5067043;28;20044;-84
2022/11/08 04:51:31;;;;;;;6.80;3.60;;;13.80;99.90;;;;;;5066707;28;20059;-85
2022/11/08 04:54:00;;;;;;;7.63;3.72;;;13.90;99.90;;;;;;5033633;28;20052;-80
2022/11/08 04:56:29;;;;;;;7.05;3.70;;;13.90;99.90;;;;;;5034572;28;20060;-85
2022/11/08 04:58:59;;;;;;;5.72;3.45;;;13.80;99.90;;;;;;5051953;28;20049;-85
2022/11/08 05:01:29;;;;;;;6.35;3.50;;;13.80;99.90;;;;;;5069121;28;20053;-86
2022/11/08 05:03:57;;;;;;;5.22;3.38;;;13.80;99.90;;;;;;5067295;28;20141;-86
2022/11/08 05:06:30;;;;;;;7.13;3.17;;;13.80;99.90;;;;;;5067789;28;20094;-86
2022/11/08 05:08:58;;;;;;;6.60;4.25;;;13.80;99.90;;;;;;5051052;28;20135;-86
2022/11/08 05:11:27;;;;;;;6.07;3.70;;;13.80;99.90;;;;;;5067200;28;20044;-86
2022/11/08 05:13:56;;;;;;;4.97;3.20;;;13.70;99.90;;;;;;5033222;28;20162;-87
2022/11/08 05:16:27;;;;;;;8.98;4.00;;;13.60;99.90;;;;;;5031720;28;20053;-87
2022/11/08 05:18:55;;;;;;;5.00;3.05;;;13.70;99.90;;;;;;5030902;28;20423;-87
2022/11/08 05:24:12;;;;;;;6.70;3.92;;;13.70;99.90;;;;;;5048232;28;20107;-86
2022/11/08 05:26:42;;;;;;;5.55;3.40;;;13.70;99.90;;;;;;5049942;28;20045;-85
2022/11/08 05:29:11;;;;;;;7.05;3.08;;;13.80;99.90;;;;;;5054201;28;20051;-84
2022/11/08 05:31:39;;;;;;;8.00;3.30;;;13.80;99.90;;;;;;5070408;28;20044;-87
2022/11/08 05:34:07;;;;;;;5.57;3.65;;;13.90;99.90;;;;;;5053805;28;20850;-86
2022/11/08 05:36:34;;;;;;;5.07;3.08;;;13.90;99.90;;;;;;5071014;28;20040;-85
2022/11/08 05:39:02;;;;;;;6.18;3.10;;;13.90;99.90;;;;;;5054328;28;20052;-87
2022/11/08 05:41:30;;;;;;;7.43;3.80;;;14.00;99.90;;;;;;5053242;28;20407;-87
2022/11/08 05:43:57;;;;;;;5.57;3.05;;;13.90;99.90;;;;;;5053745;28;20463;-85
2022/11/08 05:46:25;;;;;;;5.78;2.70;;;14.00;99.90;;;;;;5052982;28;20142;-87
2022/11/08 05:48:53;;;;;;;5.03;3.00;;;14.00;99.90;;;;;;5071281;28;20071;-85
2022/11/08 05:51:20;;;;;;;6.05;2.80;;;14.00;99.90;;;;;;5053819;28;20135;-85
2022/11/08 05:53:48;;;;;;;5.72;3.50;;;14.00;99.90;;;;;;5037249;28;20478;-83
2022/11/08 05:56:16;;;;;;;6.18;3.10;;;14.10;99.90;;;;;;5053899;28;20129;-85
2022/11/08 05:58:44;;;;;;;6.03;4.22;;;14.10;99.90;;;;;;5070959;28;20049;-85
2022/11/08 06:01:15;;;;;;;7.72;4.30;;;14.10;99.90;;;;;;5054130;28;20067;-86
2022/11/08 06:03:44;;;;;;;9.73;4.47;;;14.10;99.90;;;;;;5037016;28;20060;-85
2022/11/08 06:06:14;;;;;;;7.53;4.57;;;14.10;99.90;;;;;;5052923;28;20087;-85
2022/11/08 06:08:42;;;;;;;6.88;4.55;;;14.40;99.90;;;;;;5036983;28;20481;-85
2022/11/08 06:11:14;;;;;;;5.68;3.55;;;14.90;99.90;;;;;;5053591;28;20056;-86
2022/11/08 06:13:42;;;;;;;6.05;3.78;;;15.50;99.90;;;;;;5051085;28;20171;-84
2022/11/08 06:16:13;;;;;;;7.50;3.00;;;16.30;99.90;;;;;;5051493;28;20529;-85
2022/11/08 06:18:41;;;;;;;5.60;2.72;;;17.00;99.90;;;;;;5053355;28;20048;-87
2022/11/08 06:21:14;;;;;;;3.53;2.30;;;17.70;99.90;;;;;;5067457;28;20048;-78
2022/11/08 06:23:42;;;;;;;4.40;2.30;;;18.40;99.90;;;;;;5024428;28;20482;-80
2022/11/08 06:26:10;;;;;;;6.88;2.40;;;19.10;99.90;;;;;;5067794;28;20072;-80
2022/11/08 06:28:37;;;;;;;4.70;2.50;;;19.90;99.90;;;;;;5063679;28;20055;-79
2022/11/08 06:31:05;;;;;;;4.20;2.28;;;20.40;99.90;;;;;;5050798;28;20098;-80
2022/11/08 06:33:33;;;;;;;4.95;2.25;;;21.10;99.90;;;;;;5061670;28;20132;-80
2022/11/08 06:36:01;;;;;;;5.60;2.03;;;21.70;99.90;;;;;;5051052;28;20121;-80
2022/11/08 06:38:28;;;;;;;3.92;2.70;;;22.30;99.90;;;;;;5064419;28;20135;-80
2022/11/08 06:41:00;;;;;;;3.45;2.33;;;23.00;99.90;;;;;;5046492;28;20053;-78
2022/11/08 06:43:28;;;;;;;7.68;2.50;;;23.50;99.90;;;;;;5046266;28;20055;-80
2022/11/08 06:46:00;;;;;;;4.32;2.83;;;23.90;99.90;;;;;;5050590;28;20051;-71
2022/11/08 06:48:28;;;;;;;3.67;2.47;;;24.10;99.90;;;;;;5051676;28;20170;-72
2022/11/08 06:51:00;;;;;;;3.67;1.75;;;24.20;99.90;;;;;;5069990;28;20037;-72
2022/11/08 06:53:28;;;;;;;3.47;1.90;;;24.00;99.90;;;;;;5069318;28;20041;-72
2022/11/08 06:55:58;;;;;;;4.60;2.00;;;23.90;99.90;;;;;;5069856;28;20067;-71
2022/11/08 06:58:26;;;;;;;6.15;2.53;;;23.70;99.90;;;;;;5035156;28;20083;-72
2022/11/08 07:00:53;;;;;;;3.08;1.83;;;23.30;99.90;;;;;;5069390;28;20058;-73
2022/11/08 07:03:21;;;;;;;3.92;2.00;;;23.00;99.90;;;;;;5068337;28;20135;-72
2022/11/08 07:05:49;;;;;;;2.50;1.73;;;22.80;99.90;;;;;;5068458;28;20052;-71
2022/11/08 07:08:16;;;;;;;3.97;2.05;;;22.50;99.90;;;;;;5067053;28;20048;-72
2022/11/08 07:10:47;;;;;;;3.38;2.15;;;22.30;99.90;;;;;;5067649;28;20037;-72
2022/11/08 07:13:14;;;;;;;3.78;2.00;;;22.20;99.90;;;;;;5068211;28;20127;-71
2022/11/08 07:15:42;;;;;;;3.58;1.80;;;21.90;99.90;;;;;;5051920;28;20059;-72
2022/11/08 07:18:12;;;;;;;3.72;2.00;;;22.00;99.90;;;;;;5051231;28;20048;-72
2022/11/08 07:20:41;;;;;;;3.20;2.25;;;22.00;99.90;;;;;;5051276;28;20094;-72
2022/11/08 07:23:10;;;;;;;3.05;1.77;;;22.20;99.90;;;;;;5067762;28;20111;-71
2022/11/08 07:25:37;;;;;;;5.45;2.47;;;22.20;99.90;;;;;;5068191;28;20059;-72
2022/11/08 07:28:06;;;;;;;3.60;1.92;;;22.30;99.90;;;;;;5067455;28;20131;-72
2022/11/08 07:30:34;;;;;;;4.00;2.13;;;22.30;99.90;;;;;;5065406;28;20033;-72
2022/11/08 07:33:02;;;;;;;4.78;2.08;;;22.30;99.90;;;;;;5062420;28;20166;-72
2022/11/08 07:35:30;;;;;;;3.40;1.92;;;22.20;99.90;;;;;;5067699;28;20044;-72
2022/11/08 07:37:57;;;;;;;7.63;2.85;;;22.10;99.90;;;;;;5066834;28;20044;-72
2022/11/08 07:40:25;;;;;;;5.03;2.60;;;22.10;99.90;;;;;;5050704;28;20053;-72
2022/11/08 07:42:56;;;;;;;4.55;2.90;;;22.00;99.90;;;;;;5050752;28;20040;-73
2022/11/08 07:45:36;;;;;;;4.13;2.10;;;21.90;99.90;;;;;;5067864;28;20152;-72
2022/11/08 07:48:06;;;;;;;6.10;3.63;;;21.80;99.90;;;;;;5050788;28;20082;-71
2022/11/08 07:50:37;;;;;;;4.47;2.75;;;21.70;99.90;;;;;;5051737;28;20048;-72
2022/11/08 07:53:05;;;;;;;4.35;2.30;;;21.60;99.90;;;;;;5067416;28;20573;-72
2022/11/08 07:55:35;;;;;;;5.53;2.83;;;21.50;99.90;;;;;;5069009;28;20067;-73
2022/11/08 07:58:04;;;;;;;4.40;2.17;;;21.40;99.90;;;;;;5050671;28;20113;-71
2022/11/08 08:00:35;;;;;;;5.00;2.67;;;21.40;99.90;;;;;;5065695;28;20143;-73
2022/11/08 08:03:04;;;;;;;6.68;2.85;;;21.40;99.90;;;;;;5031390;28;20135;-72
2022/11/08 08:05:37;;;;;;;7.28;2.70;;;21.50;99.90;;;;;;5048797;28;20540;-72
2022/11/08 08:08:05;;;;;;;6.20;3.03;;;21.50;99.90;;;;;;5013716;28;20808;-71
2022/11/08 08:10:33;;;;;;;3.88;2.05;;;21.60;99.90;;;;;;5047634;28;20558;-72
2022/11/08 08:13:01;;;;;;;3.22;2.10;;;21.70;99.90;;;;;;5047397;28;20049;-72
2022/11/08 08:15:29;;;;;;;6.60;3.58;;;21.90;99.90;;;;;;5030729;28;20418;-72
2022/11/08 08:18:00;;;;;;;5.28;2.78;;;22.00;99.90;;;;;;5047990;28;20048;-71
2022/11/08 08:20:29;;;;;;;4.10;2.45;;;22.20;99.90;;;;;;5031199;28;20638;-72
2022/11/08 08:22:58;;;;;;;5.43;2.47;;;22.30;99.90;;;;;;5030493;28;20152;-71
2022/11/08 08:25:29;;;;;;;5.88;2.85;;;22.20;99.90;;;;;;5014786;28;20106;-72
2022/11/08 08:28:02;;;;;;;4.40;2.58;;;22.30;99.90;;;;;;5030887;28;20048;-73
2022/11/08 08:30:30;;;;;;;6.63;2.55;;;22.40;99.90;;;;;;5030749;28;20045;-73
2022/11/08 08:33:04;;;;;;;5.40;2.90;;;22.50;99.90;;;;;;5048087;28;20047;-73
2022/11/08 08:35:53;;;;;;;6.88;3.05;;;22.70;99.90;;;;;;5047453;28;20041;-73
2022/11/08 08:38:20;;;;;;;3.90;2.03;;;22.80;99.90;;;;;;5030791;28;20037;-73
2022/11/08 08:40:49;;;;;;;5.00;2.47;;;22.80;99.90;;;;;;5047011;28;20118;-72
2022/11/08 08:43:16;;;;;;;3.90;2.20;;;22.90;99.90;;;;;;5047047;28;20049;-72
2022/11/08 08:45:44;;;;;;;3.70;1.98;;;23.00;99.90;;;;;;5030218;28;20080;-72
2022/11/08 08:48:12;;;;;;;3.42;2.35;;;23.00;99.90;;;;;;5031222;28;20052;-73
2022/11/08 08:50:40;;;;;;;3.53;2.10;;;22.80;99.90;;;;;;5068402;28;20068;-72
2022/11/08 08:53:09;;;;;;;4.03;1.75;;;22.90;99.90;;;;;;5067764;28;20048;-72
2022/11/08 08:55:38;;;;;;;3.97;1.75;;;23.00;99.90;;;;;;5068169;28;20044;-72
2022/11/08 08:58:07;;;;;;;4.07;2.33;;;23.10;99.90;;;;;;5066674;28;20552;-72
2022/11/08 09:00:35;;;;;;;4.75;1.83;;;23.30;99.90;;;;;;5068053;28;20067;-72
2022/11/08 09:03:22;;;;;;;5.47;1.73;;;23.30;99.90;;;;;;5069195;28;20080;-73
2022/11/08 09:05:50;;;;;;;3.88;2.22;;;23.50;99.90;;;;;;5067395;28;20086;-72
2022/11/08 09:08:18;;;;;;;4.95;2.70;;;23.60;99.90;;;;;;5066360;28;20482;-74
2022/11/08 09:10:46;;;;;;;3.40;1.85;;;23.70;99.90;;;;;;5045911;28;20053;-72
2022/11/08 09:13:13;;;;;;;2.80;1.75;;;23.70;99.90;;;;;;5049966;28;20513;-72
2022/11/08 09:15:41;;;;;;;2.85;1.52;;;23.70;99.90;;;;;;5049084;28;20170;-72
2022/11/08 09:18:09;;;;;;;3.92;1.77;;;23.80;99.90;;;;;;5050286;28;20095;-71
2022/11/08 09:20:37;;;;;;;3.17;1.85;;;24.00;99.90;;;;;;5051730;28;20801;-73
2022/11/08 09:23:04;;;;;;;4.30;2.47;;;24.00;99.90;;;;;;5033012;28;20045;-72
2022/11/08 09:25:32;;;;;;;2.97;1.88;;;24.10;99.90;;;;;;5051603;28;20481;-72
2022/11/08 09:27:59;;;;;;;7.03;3.35;;;24.20;99.90;;;;;;5050438;28;20111;-74
2022/11/08 09:30:27;;;;;;;7.45;2.38;;;24.00;99.90;;;;;;5017210;28;20049;-72
2022/11/08 09:32:55;;;;;;;3.35;1.95;;;23.80;99.90;;;;;;5049947;28;20045;-73
2022/11/08 09:35:27;;;;;;;3.70;1.63;;;23.70;99.90;;;;;;5017443;28;20045;-72
2022/11/08 09:37:54;;;;;;;3.30;1.55;;;23.60;99.90;;;;;;5062225;28;20048;-72
2022/11/08 09:40:41;;;;;;;4.63;2.00;;;23.30;99.90;;;;;;5051907;28;20049;-72
2022/11/08 09:43:32;;;;;;;3.75;1.95;;;23.00;99.90;;;;;;5033720;28;20088;-72
2022/11/08 09:46:00;;;;;;;2.33;1.50;;;23.00;99.90;;;;;;5050008;28;20045;-76
2022/11/08 09:48:35;;;;;;;2.50;1.75;;;23.30;99.90;;;;;;5049370;28;20045;-72
2022/11/08 09:51:08;;;;;;;3.97;1.67;;;23.70;99.90;;;;;;5049807;28;20043;-72
2022/11/08 09:53:51;;;;;;;3.33;1.85;;;23.90;99.90;;;;;;5049755;28;20103;-72
2022/11/08 09:56:27;;;;;;;4.75;1.80;;;24.00;99.90;;;;;;5049333;28;20053;-72
2022/11/08 09:59:01;;;;;;;4.05;1.95;;;23.80;99.90;;;;;;5016937;28;20064;-73
2022/11/08 10:01:33;;;;;;;3.25;2.40;;;23.40;99.90;;;;;;5064158;28;20048;-71
2022/11/08 10:04:24;;;;;;;8.25;2.13;;;23.00;99.90;;;;;;5068753;28;20060;-72
2022/11/08 10:07:21;;;;;;;4.50;2.00;;;22.60;99.90;;;;;;5052859;28;20059;-72
2022/11/08 10:09:49;;;;;;;3.22;2.20;;;22.60;99.90;;;;;;5052761;28;20217;-72
2022/11/08 10:12:26;;;;;;;6.30;2.20;;;22.70;99.90;;;;;;5052441;28;20135;-72
2022/11/08 10:15:03;;;;;;;3.13;1.70;;;22.30;99.90;;;;;;5068228;28;20045;-75
2022/11/08 10:17:33;;;;;;;3.25;1.95;;;22.20;99.90;;;;;;5052899;28;20133;-73
2022/11/08 10:20:01;;;;;;;2.95;1.85;;;21.90;99.90;;;;;;5069876;28;20415;-72
2022/11/08 10:22:38;;;;;;;5.15;2.05;;;21.70;99.90;;;;;;5070353;28;20122;-73
2022/11/08 10:25:29;;;;;;;3.42;2.00;;;21.50;99.90;;;;;;5070528;28;20052;-72
2022/11/08 10:28:28;;;;;;;2.75;2.05;;;21.30;99.90;;;;;;5052671;28;20044;-72
2022/11/08 10:31:14;;;;;;;3.63;2.20;;;21.30;99.90;;;;;;5067018;28;20127;-72
2022/11/08 10:33:55;;;;;;;2.83;1.80;;;21.30;99.90;;;;;;5051485;28;20049;-72
2022/11/08 10:36:44;;;;;;;6.15;2.47;;;21.70;99.90;;;;;;5068804;28;20044;-72
2022/11/08 10:39:21;;;;;;;3.33;2.22;;;22.00;99.90;;;;;;5069167;28;20084;-72
2022/11/08 10:42:12;;;;;;;3.92;1.85;;;22.40;99.90;;;;;;5052170;28;20430;-72
2022/11/08 10:44:40;;;;;;;4.03;2.13;;;22.70;99.90;;;;;;5058962;28;20049;-72
2022/11/08 10:47:24;;;;;;;3.15;2.00;;;23.10;99.90;;;;;;5068753;28;20498;-72
2022/11/08 10:49:53;;;;;;;3.97;1.90;;;23.30;99.90;;;;;;5035592;28;20048;-72
2022/11/08 10:52:38;;;;;;;3.17;2.20;;;23.30;99.90;;;;;;5069641;28;20052;-73
2022/11/08 10:55:08;;;;;;;3.85;2.03;;;23.20;99.90;;;;;;5035635;28;20049;-73
2022/11/08 10:57:38;;;;;;;4.93;1.80;;;22.80;99.90;;;;;;5051782;28;20079;-72
2022/11/08 11:00:21;;;;;;;5.15;2.33;;;22.60;99.90;;;;;;5034823;28;20098;-72
2022/11/08 11:02:53;;;;;;;2.75;1.98;;;22.70;99.90;;;;;;5052194;28;20048;-71
2022/11/08 11:05:26;;;;;;;3.35;1.98;;;22.70;99.90;;;;;;5068228;28;20087;-72
2022/11/08 11:08:03;;;;;;;3.00;2.22;;;22.90;99.90;;;;;;5052036;28;20052;-72
2022/11/08 11:10:35;;;;;;;3.50;1.30;;;23.20;99.90;;;;;;5069651;28;20064;-72
2022/11/08 11:13:13;;;;;;;3.13;1.95;;;23.50;99.90;;;;;;5069665;28;20399;-72
2022/11/08 11:15:51;;;;;;;3.63;1.65;;;23.60;99.90;;;;;;5034991;28;20116;-72
2022/11/08 11:19:00;;;;;;;4.43;1.80;;;23.70;99.90;;;;;;5051482;28;20099;-72
2022/11/08 11:21:35;;;;;;;3.45;1.63;;;23.80;99.90;;;;;;5006859;28;20076;-72
2022/11/08 11:24:15;;;;;;;35.60;32.90;;;23.60;99.90;;;;;;4991166;28;20062;-72
2022/11/08 11:27:09;;;;;;;26.27;24.05;;;23.70;99.90;;;;;;5021406;28;20322;-72
2022/11/08 11:29:38;;;;;;;8.48;6.47;;;23.60;99.90;;;;;;5066223;28;20095;-73
2022/11/08 11:32:22;;;;;;;3.13;2.70;;;23.70;99.90;;;;;;5067343;28;20051;-73
2022/11/08 11:35:00;;;;;;;3.25;2.10;;;23.80;99.90;;;;;;5050974;28;20455;-72
2022/11/08 11:37:43;;;;;;;3.45;2.13;;;23.60;99.90;;;;;;5051817;28;20143;-72
2022/11/08 11:40:19;;;;;;;6.15;3.80;;;23.50;99.90;;;;;;5034357;28;20052;-71
2022/11/08 11:43:01;;;;;;;3.92;2.25;;;23.40;99.90;;;;;;5067421;28;20052;-74
2022/11/08 11:45:39;;;;;;;6.07;2.13;;;23.30;99.90;;;;;;5051262;28;20545;-75
2022/11/08 11:48:29;;;;;;;3.28;1.75;;;23.30;99.90;;;;;;5050891;28;20060;-72
2022/11/08 11:50:57;;;;;;;3.65;2.20;;;23.30;99.90;;;;;;5067629;28;20148;-74
2022/11/08 11:53:37;;;;;;;7.03;2.10;;;23.50;99.90;;;;;;5050677;28;20447;-74
2022/11/08 11:56:50;;;;;;;3.80;2.40;;;23.60;99.90;;;;;;5033820;28;20416;-73
2022/11/08 11:59:37;;;;;;;3.65;1.90;;;23.70;99.90;;;;;;5034408;28;20169;-72
2022/11/08 12:02:16;;;;;;;;;;;23.80;99.90;;;;;;5051098;28;20045;-72
2022/11/08 12:05:09;;;;;;;3.88;1.92;;;23.60;99.90;;;;;;5050641;28;19979;-72
2022/11/08 12:08:00;;;;;;;4.53;2.58;;;23.40;99.90;;;;;;5068884;28;20109;-72
2022/11/08 12:10:30;;;;;;;5.00;2.10;;;23.10;99.90;;;;;;5051484;28;20079;-72
2022/11/08 12:13:16;;;;;;;2.97;1.83;;;22.70;99.90;;;;;;5047466;28;20063;-72
2022/11/08 12:16:20;;;;;;;4.32;2.28;;;22.50;99.90;;;;;;5047513;28;20492;-73
2022/11/08 12:19:09;;;;;;;4.55;3.50;;;22.30;99.90;;;;;;5048848;28;20897;-72
2022/11/08 12:21:55;;;;;;;6.47;4.60;;;22.40;99.90;;;;;;5048366;28;20049;-73
2022/11/08 12:24:58;;;;;;;5.82;3.05;;;22.20;99.90;;;;;;5047200;28;20053;-72
2022/11/08 12:27:41;;;;;;;3.92;2.85;;;22.20;99.90;;;;;;5042304;28;20152;-72
2022/11/08 12:30:17;;;;;;;4.65;2.75;;;22.20;99.90;;;;;;5046867;28;20048;-72
2022/11/08 12:33:13;;;;;;;10.77;5.78;;;22.30;99.90;;;;;;5047114;28;20049;-73
2022/11/08 12:36:04;;;;;;;44.80;32.33;;;22.20;99.90;;;;;;5042599;28;20056;-72
2022/11/08 12:38:34;;;;;;;113.20;61.03;;;22.30;99.90;;;;;;5063827;28;20115;-72
2022/11/08 12:41:20;;;;;;;29.75;20.10;;;22.40;99.90;;;;;;5066847;28;20049;-72
2022/11/08 12:44:00;;;;;;;11.25;5.32;;;22.40;99.90;;;;;;5084213;28;20048;-74
2022/11/08 12:46:34;;;;;;;21.27;10.23;;;22.40;99.90;;;;;;5043200;28;20517;-73
2022/11/08 12:49:40;;;;;;;10.55;6.97;;;22.40;99.90;;;;;;5070564;28;20040;-72
2022/11/08 12:52:31;;;;;;;71.07;37.13;;;22.40;99.90;;;;;;5065921;28;20079;-72
2022/11/08 12:55:03;;;;;;;87.18;46.55;;;22.10;99.90;;;;;;5053975;28;20135;-72
2022/11/08 12:57:31;;;;;;;48.75;36.15;;;21.80;99.90;;;;;;5061229;28;20053;-73
2022/11/08 13:00:05;;;;;;;25.67;16.58;;;21.80;99.90;;;;;;5046760;28;20048;-72
2022/11/08 13:02:37;;;;;;;10.65;5.63;;;21.90;99.90;;;;;;5067339;28;20052;-72
2022/11/08 13:05:23;;;;;;;4.55;2.88;;;21.90;99.90;;;;;;5065583;28;20049;-73
2022/11/08 13:07:58;;;;;;;4.03;2.33;;;22.00;99.90;;;;;;5054269;28;20056;-71
2022/11/08 13:10:52;;;;;;;4.03;2.03;;;22.10;99.90;;;;;;5062425;28;20071;-72
2022/11/08 13:13:46;;;;;;;4.47;2.45;;;21.90;99.90;;;;;;5049051;28;20047;-72
2022/11/08 13:16:14;;;;;;;9.73;1.80;;;22.10;99.90;;;;;;5063442;28;20159;-74
2022/11/08 13:18:50;;;;;;;4.25;2.05;;;21.80;99.90;;;;;;5072402;28;20102;-72
2022/11/08 13:21:27;;;;;;;;;;;21.80;99.90;;;;;;5037648;28;20072;-72
2022/11/08 13:24:17;;;;;;;5.95;2.38;;;21.90;99.90;;;;;;5070668;28;19971;-72
2022/11/08 13:27:36;;;;;;;2.78;1.80;;;22.00;99.90;;;;;;5048203;28;20057;-71
2022/11/08 13:30:10;;;;;;;3.63;1.63;;;21.90;99.90;;;;;;5063910;28;20045;-71
2022/11/08 13:33:02;;;;;;;4.93;2.03;;;21.90;99.90;;;;;;5052974;28;20083;-72
2022/11/08 13:35:45;;;;;;;3.58;2.08;;;21.90;99.90;;;;;;5063936;28;20048;-73
2022/11/08 13:38:42;;;;;;;3.67;1.77;;;21.90;99.90;;;;;;5059496;28;20467;-72
2022/11/08 13:41:17;;;;;;;;;;;21.80;99.90;;;;;;5047742;28;20049;-72
2022/11/08 13:43:46;;;;;;;4.45;2.05;;;21.80;99.90;;;;;;5036984;28;19935;-71